Mine Centre, Canada
Current Conditions -  °F | °C
As of 10:12 AM on Sunday 25 Jan 2015 (Local Time) from KCDD Reporting Station
Clear Clear  
Wind Chill:   Ceiling: Unl
Heat Index:   Visibility: 10mi
Dew Point: -4°   Wind: 0mph
Humidity: 72%   Direction: NA
Pressure: 30.1"   Gusts: NA
Location:  48.76°N, 92.64°W
Report Text: KCDD 251612Z AUTO 00000KT 10SM CLR M16/M20 A3010 RMK AO2
Loading
Personal Weather Stations






























Interactive Weather Map New forecast layout! Learn more

10-Day Weather Forecast

Advertisements
Track Severe Weather on mobile